createdAt,value
2023-05-20T00:01:45.578Z,6.30
2023-05-20T00:04:14.492Z,9.13
2023-05-20T00:06:42.850Z,6.95
2023-05-20T00:09:11.165Z,6.93
2023-05-20T00:11:39.591Z,6.68
2023-05-20T00:14:08.033Z,6.15
2023-05-20T00:16:37.711Z,6.72
2023-05-20T00:19:06.153Z,7.00
2023-05-20T00:21:34.855Z,7.47
2023-05-20T00:24:03.580Z,6.57
2023-05-20T00:26:31.930Z,7.18
2023-05-20T00:29:01.183Z,7.00
2023-05-20T00:31:29.820Z,7.57
2023-05-20T00:33:59.803Z,8.95
2023-05-20T00:36:28.397Z,9.05
2023-05-20T00:38:56.972Z,10.15
2023-05-20T00:41:25.430Z,9.07
2023-05-20T00:43:55.891Z,18.38
2023-05-20T00:46:25.530Z,10.15
2023-05-20T00:48:54.471Z,9.85
2023-05-20T00:51:24.284Z,8.55
2023-05-20T00:53:53.091Z,8.25
2023-05-20T00:56:22.927Z,8.68
2023-05-20T00:58:52.072Z,6.75
2023-05-20T01:01:20.643Z,7.07
2023-05-20T01:03:49.753Z,7.10
2023-05-20T01:06:18.102Z,7.90
2023-05-20T01:08:49.354Z,8.88
2023-05-20T01:11:23.774Z,7.22
2023-05-20T01:13:56.565Z,7.32
2023-05-20T01:16:26.082Z,7.40
2023-05-20T01:18:57.610Z,7.28
2023-05-20T01:21:28.506Z,9.15
2023-05-20T01:23:58.668Z,8.23
2023-05-20T01:26:28.211Z,8.50
2023-05-20T01:28:58.205Z,7.75
2023-05-20T01:31:31.654Z,9.73
2023-05-20T01:34:01.713Z,8.00
2023-05-20T01:36:32.378Z,7.80
2023-05-20T01:39:06.125Z,8.00
2023-05-20T01:41:36.519Z,9.25
2023-05-20T01:44:05.569Z,8.82
2023-05-20T01:46:34.847Z,15.82
2023-05-20T01:49:04.117Z,8.68
2023-05-20T01:51:35.361Z,9.45
2023-05-20T01:54:06.089Z,9.57
2023-05-20T01:56:35.482Z,9.93
2023-05-20T01:59:03.769Z,8.82
2023-05-20T02:01:32.585Z,10.23
2023-05-20T02:04:00.901Z,9.00
2023-05-20T02:06:29.751Z,7.90
2023-05-20T02:08:58.068Z,9.68
2023-05-20T02:11:28.650Z,10.90
2023-05-20T02:13:57.572Z,9.25
2023-05-20T02:16:26.596Z,8.73
2023-05-20T02:18:55.021Z,24.90
2023-05-20T02:21:24.588Z,12.40
2023-05-20T02:23:52.979Z,9.52
2023-05-20T02:26:22.600Z,8.10
2023-05-20T02:28:52.711Z,9.07
2023-05-20T02:31:23.249Z,10.52
2023-05-20T02:33:52.082Z,8.38
2023-05-20T02:36:21.211Z,9.45
2023-05-20T02:38:50.607Z,8.70
2023-05-20T02:41:19.028Z,8.75
2023-05-20T02:43:48.911Z,8.10
2023-05-20T02:46:19.801Z,8.27
2023-05-20T02:48:48.172Z,9.35
2023-05-20T02:51:16.625Z,8.73
2023-05-20T02:53:44.981Z,10.02
2023-05-20T02:56:13.390Z,8.63
2023-05-20T02:58:41.849Z,8.98
2023-05-20T03:01:10.518Z,9.57
2023-05-20T03:03:40.787Z,10.73
2023-05-20T03:06:09.435Z,10.95
2023-05-20T03:08:39.645Z,10.68
2023-05-20T03:11:08.031Z,11.13
2023-05-20T03:13:36.325Z,9.65
2023-05-20T03:16:04.961Z,12.85
2023-05-20T03:18:33.324Z,11.52
2023-05-20T03:21:04.569Z,10.90
2023-05-20T03:23:32.913Z,12.77
2023-05-20T03:26:02.024Z,12.35
2023-05-20T03:28:30.498Z,10.10
2023-05-20T03:30:59.822Z,11.40
2023-05-20T03:33:28.246Z,10.10
2023-05-20T03:35:57.272Z,12.27
2023-05-20T03:38:27.232Z,12.38
2023-05-20T03:40:55.733Z,13.10
2023-05-20T03:43:25.244Z,11.75
2023-05-20T03:45:54.176Z,13.80
2023-05-20T03:48:24.249Z,14.15
2023-05-20T03:50:52.805Z,10.05
2023-05-20T03:53:21.734Z,10.15
2023-05-20T03:55:52.315Z,11.13
2023-05-20T03:58:22.321Z,12.27
2023-05-20T04:00:51.910Z,11.10
2023-05-20T04:03:20.442Z,12.80
2023-05-20T04:05:50.159Z,11.40
2023-05-20T04:08:25.857Z,12.57
2023-05-20T04:10:58.542Z,13.15
2023-05-20T04:13:26.860Z,14.45
2023-05-20T04:15:55.698Z,12.60
2023-05-20T04:18:24.481Z,11.77
2023-05-20T04:20:56.225Z,13.00
2023-05-20T04:23:25.667Z,13.20
2023-05-20T04:28:28.361Z,13.60
2023-05-20T04:31:00.173Z,13.73
2023-05-20T04:33:29.241Z,14.32
2023-05-20T04:35:58.723Z,13.70
2023-05-20T04:38:30.004Z,14.52
2023-05-20T04:40:58.891Z,13.50
2023-05-20T04:43:30.222Z,15.20
2023-05-20T04:46:01.424Z,12.70
2023-05-20T04:48:30.038Z,16.20
2023-05-20T04:50:58.472Z,15.55
2023-05-20T04:53:27.008Z,16.42
2023-05-20T04:55:56.829Z,15.50
2023-05-20T04:58:25.873Z,15.18
2023-05-20T05:00:56.791Z,19.08
2023-05-20T05:03:25.372Z,22.48
2023-05-20T05:05:57.549Z,19.00
2023-05-20T05:08:26.352Z,17.83
2023-05-20T05:10:54.962Z,19.98
2023-05-20T05:13:23.456Z,19.25
2023-05-20T05:16:01.022Z,23.77
2023-05-20T05:18:31.193Z,21.30
2023-05-20T05:21:01.799Z,24.17
2023-05-20T05:23:30.288Z,23.23
2023-05-20T05:25:59.177Z,22.50
2023-05-20T05:28:28.270Z,25.42
2023-05-20T05:30:57.060Z,25.13
2023-05-20T05:33:27.290Z,27.20
2023-05-20T05:35:58.944Z,24.63
2023-05-20T05:38:29.093Z,28.42
2023-05-20T05:40:57.961Z,27.20
2023-05-20T05:43:26.672Z,30.75
2023-05-20T05:45:55.117Z,26.23
2023-05-20T05:48:23.698Z,24.98
2023-05-20T05:50:54.393Z,24.17
2023-05-20T05:53:23.519Z,24.75
2023-05-20T05:55:52.196Z,22.92
2023-05-20T05:58:20.914Z,30.65
2023-05-20T06:00:53.414Z,26.85
2023-05-20T06:03:21.842Z,26.75
2023-05-20T06:05:50.384Z,25.25
2023-05-20T06:08:23.516Z,26.38
2023-05-20T06:10:52.043Z,26.23
2023-05-20T06:13:21.761Z,27.08
2023-05-20T06:15:50.978Z,31.90
2023-05-20T06:18:19.331Z,29.33
2023-05-20T06:20:55.277Z,26.08
2023-05-20T06:23:25.091Z,25.50
2023-05-20T06:26:01.270Z,24.52
2023-05-20T06:28:31.242Z,32.97
2023-05-20T06:30:59.825Z,32.80
2023-05-20T06:33:33.193Z,28.95
2023-05-20T06:36:06.311Z,26.92
2023-05-20T06:38:36.431Z,27.98
2023-05-20T06:41:05.149Z,27.35
2023-05-20T06:43:34.457Z,25.50
2023-05-20T06:46:26.172Z,30.08
2023-05-20T06:48:58.281Z,25.05
2023-05-20T06:51:28.017Z,25.27
2023-05-20T06:53:58.090Z,27.08
2023-05-20T06:56:26.734Z,25.87
2023-05-20T06:58:56.715Z,28.42
2023-05-20T07:01:25.741Z,24.38
2023-05-20T07:03:54.083Z,23.85
2023-05-20T07:06:23.060Z,23.88
2023-05-20T07:08:51.466Z,23.77
2023-05-20T07:11:21.672Z,25.05
2023-05-20T07:13:50.143Z,23.27
2023-05-20T07:16:18.945Z,27.38
2023-05-20T07:18:54.284Z,25.15
2023-05-20T07:21:23.339Z,22.30
2023-05-20T07:24:15.206Z,21.88
2023-05-20T07:26:46.072Z,36.13
2023-05-20T07:31:42.732Z,21.98
2023-05-20T07:34:11.047Z,22.42
2023-05-20T07:36:39.809Z,20.98
2023-05-20T07:39:12.529Z,23.00
2023-05-20T07:41:45.363Z,23.88
2023-05-20T07:44:14.736Z,22.58
2023-05-20T07:46:48.499Z,24.23
2023-05-20T07:49:16.823Z,22.83
2023-05-20T07:51:47.201Z,25.52
2023-05-20T07:54:17.074Z,21.48
2023-05-20T07:56:49.970Z,18.88
2023-05-20T07:59:18.395Z,25.42
2023-05-20T08:01:49.977Z,23.25
2023-05-20T08:04:20.750Z,20.50
2023-05-20T08:06:49.932Z,19.92
2023-05-20T08:09:28.175Z,19.90
2023-05-20T08:11:59.457Z,21.75
2023-05-20T08:14:28.090Z,20.15
2023-05-20T08:16:57.539Z,16.58
2023-05-20T08:19:25.955Z,16.17
2023-05-20T08:21:54.462Z,16.50
2023-05-20T08:24:23.299Z,15.30
2023-05-20T08:26:51.906Z,17.65
2023-05-20T08:29:25.029Z,17.10
2023-05-20T08:31:53.749Z,23.63
2023-05-20T08:34:23.102Z,13.57
2023-05-20T08:36:52.665Z,43.47
2023-05-20T08:39:21.722Z,41.70
2023-05-20T08:41:50.267Z,41.08
2023-05-20T08:44:22.061Z,17.48
2023-05-20T08:46:52.960Z,72.85
2023-05-20T08:49:22.606Z,37.45
2023-05-20T08:51:51.144Z,16.40
2023-05-20T08:54:24.306Z,13.70
2023-05-20T08:56:56.007Z,11.75
2023-05-20T08:59:24.995Z,22.63
2023-05-20T09:01:54.800Z,35.10
2023-05-20T09:04:24.084Z,22.98
2023-05-20T09:06:52.549Z,13.65
2023-05-20T09:09:21.672Z,10.98
2023-05-20T09:11:50.081Z,15.20
2023-05-20T09:14:18.448Z,14.45
2023-05-20T09:16:46.934Z,17.10
2023-05-20T09:19:16.674Z,21.60
2023-05-20T09:21:48.934Z,11.68
2023-05-20T09:24:20.558Z,12.43
2023-05-20T09:26:49.233Z,18.55
2023-05-20T09:29:17.602Z,12.07
2023-05-20T09:31:46.334Z,10.52
2023-05-20T09:34:16.664Z,18.65
2023-05-20T09:36:46.335Z,20.77
2023-05-20T09:39:17.215Z,13.98
2023-05-20T09:41:55.309Z,24.05
2023-05-20T09:44:23.965Z,8.70
2023-05-20T09:46:53.281Z,11.13
2023-05-20T09:49:24.870Z,9.32
2023-05-20T09:51:54.684Z,8.85
2023-05-20T09:54:25.633Z,9.27
2023-05-20T09:56:56.020Z,9.30
2023-05-20T09:59:26.188Z,7.97
2023-05-20T10:01:55.009Z,13.82
2023-05-20T10:04:26.973Z,11.18
2023-05-20T10:07:41.343Z,8.63
2023-05-20T10:10:23.173Z,11.57
2023-05-20T10:13:06.258Z,14.90
2023-05-20T10:15:45.129Z,10.40
2023-05-20T10:18:26.757Z,8.23
2023-05-20T10:20:56.749Z,8.65
2023-05-20T10:23:29.073Z,8.32
2023-05-20T10:25:58.374Z,7.60
2023-05-20T10:28:31.757Z,8.00
2023-05-20T10:31:01.297Z,6.85
2023-05-20T10:33:30.871Z,6.60
2023-05-20T10:36:02.621Z,7.15
2023-05-20T10:38:31.158Z,7.05
2023-05-20T10:41:11.231Z,7.07
2023-05-20T10:43:39.817Z,8.13
2023-05-20T10:46:17.156Z,9.30
2023-05-20T10:48:50.629Z,13.57
2023-05-20T10:51:21.872Z,8.93
2023-05-20T10:53:55.648Z,16.10
2023-05-20T10:56:25.879Z,10.27
2023-05-20T11:01:26.464Z,10.00
2023-05-20T11:03:57.501Z,6.47
2023-05-20T11:06:29.842Z,7.93
2023-05-20T11:09:06.993Z,7.07
2023-05-20T11:11:35.433Z,7.97
2023-05-20T11:14:04.885Z,10.27
2023-05-20T11:16:33.488Z,9.20
2023-05-20T11:19:04.219Z,6.78
2023-05-20T11:21:34.179Z,7.00
2023-05-20T11:24:03.268Z,7.22
2023-05-20T11:26:33.292Z,7.07
2023-05-20T11:29:03.054Z,5.65
2023-05-20T11:31:31.897Z,5.23
2023-05-20T11:34:01.468Z,5.20
2023-05-20T11:36:30.546Z,5.07
2023-05-20T11:39:00.998Z,5.45
2023-05-20T11:41:30.515Z,5.95
2023-05-20T11:44:00.310Z,8.30
2023-05-20T11:46:29.800Z,5.30
2023-05-20T11:49:01.134Z,6.30
2023-05-20T11:51:31.011Z,5.82
2023-05-20T11:54:03.277Z,6.20
2023-05-20T11:56:32.566Z,5.57
2023-05-20T11:59:01.981Z,7.68
2023-05-20T12:01:33.804Z,5.30
2023-05-20T12:04:02.306Z,6.68
2023-05-20T12:06:31.057Z,6.43
2023-05-20T12:09:03.243Z,6.53
2023-05-20T12:11:33.538Z,5.65
2023-05-20T12:14:02.435Z,6.80
2023-05-20T12:16:32.235Z,6.22
2023-05-20T12:19:01.438Z,6.47
2023-05-20T12:21:31.283Z,6.75
2023-05-20T12:24:01.159Z,10.00
2023-05-20T12:26:32.156Z,8.13
2023-05-20T12:29:01.090Z,8.52
2023-05-20T12:31:30.315Z,7.15
2023-05-20T12:34:00.175Z,7.20
2023-05-20T12:36:28.880Z,7.82
2023-05-20T12:38:57.217Z,6.43
2023-05-20T12:41:26.013Z,7.25
2023-05-20T12:43:56.205Z,8.52
2023-05-20T12:48:53.593Z,7.15
2023-05-20T12:51:21.969Z,6.35
2023-05-20T12:53:50.837Z,8.15
2023-05-20T12:56:19.943Z,8.95
2023-05-20T12:58:48.298Z,9.38
2023-05-20T13:01:17.945Z,9.73
2023-05-20T13:03:47.338Z,10.05
2023-05-20T13:06:16.922Z,8.93
2023-05-20T13:08:45.582Z,9.63
2023-05-20T13:11:14.412Z,9.45
2023-05-20T13:13:43.028Z,8.63
2023-05-20T13:16:17.094Z,8.82
2023-05-20T13:18:47.364Z,8.07
2023-05-20T13:21:16.126Z,9.32
2023-05-20T13:23:44.813Z,9.88
2023-05-20T13:26:13.793Z,9.52
2023-05-20T13:28:42.137Z,10.07
2023-05-20T13:31:10.821Z,8.18
2023-05-20T13:33:39.171Z,9.70
2023-05-20T13:36:14.148Z,8.48
2023-05-20T13:38:46.785Z,11.15
2023-05-20T13:41:16.257Z,11.30
2023-05-20T13:43:44.618Z,7.67
2023-05-20T13:46:13.122Z,7.45
2023-05-20T13:48:42.221Z,10.40
2023-05-20T13:51:12.000Z,8.77
2023-05-20T13:53:40.784Z,10.07
2023-05-20T13:56:09.820Z,10.68
2023-05-20T13:58:38.259Z,9.95
2023-05-20T14:01:06.792Z,9.07
2023-05-20T14:03:37.576Z,11.18
2023-05-20T14:06:06.595Z,8.38
2023-05-20T14:08:36.866Z,9.70
2023-05-20T14:11:05.307Z,12.10
2023-05-20T14:13:33.928Z,9.15
2023-05-20T14:16:03.770Z,11.02
2023-05-20T14:18:32.446Z,10.05
2023-05-20T14:21:01.081Z,10.88
2023-05-20T14:23:31.715Z,10.77
2023-05-20T14:26:01.454Z,8.95
2023-05-20T14:28:30.202Z,8.77
2023-05-20T14:30:58.719Z,16.35
2023-05-20T14:33:27.370Z,14.30
2023-05-20T14:35:55.694Z,8.93
2023-05-20T14:38:24.516Z,17.55
2023-05-20T14:40:52.947Z,10.80
2023-05-20T14:43:22.704Z,9.40
2023-05-20T14:45:51.555Z,10.70
2023-05-20T14:48:19.864Z,12.60
2023-05-20T14:50:49.830Z,16.55
2023-05-20T14:53:19.323Z,10.45
2023-05-20T14:55:48.603Z,11.35
2023-05-20T14:58:17.004Z,16.00
2023-05-20T15:00:47.156Z,13.32
2023-05-20T15:03:15.868Z,11.35
2023-05-20T15:05:45.113Z,11.93
2023-05-20T15:08:13.485Z,11.35
2023-05-20T15:10:42.276Z,10.68
2023-05-20T15:13:10.772Z,11.02
2023-05-20T15:15:39.349Z,9.65
2023-05-20T15:18:09.336Z,13.48
2023-05-20T15:20:38.197Z,13.32
2023-05-20T15:23:06.519Z,13.40
2023-05-20T15:25:35.351Z,16.10
2023-05-20T15:28:03.912Z,10.98
2023-05-20T15:30:32.502Z,9.95
2023-05-20T15:33:02.317Z,11.13
2023-05-20T15:35:32.275Z,13.10
2023-05-20T15:38:00.914Z,11.52
2023-05-20T15:40:30.810Z,14.43
2023-05-20T15:43:00.782Z,9.68
2023-05-20T15:45:29.078Z,13.50
2023-05-20T15:47:59.020Z,9.40
2023-05-20T15:50:28.150Z,9.75
2023-05-20T15:52:58.424Z,9.63
2023-05-20T15:55:26.815Z,10.73
2023-05-20T15:57:55.406Z,14.45
2023-05-20T16:00:25.758Z,11.02
2023-05-20T16:02:55.562Z,10.85
2023-05-20T16:05:25.699Z,12.55
2023-05-20T16:07:54.754Z,11.52
2023-05-20T16:10:26.137Z,11.07
2023-05-20T16:12:54.871Z,13.95
2023-05-20T16:15:25.555Z,10.90
2023-05-20T16:17:53.952Z,12.32
2023-05-20T16:20:22.236Z,11.00
2023-05-20T16:22:52.022Z,12.68
2023-05-20T16:25:20.495Z,9.32
2023-05-20T16:27:51.446Z,11.13
2023-05-20T16:30:19.804Z,11.82
2023-05-20T16:32:48.741Z,11.60
2023-05-20T16:35:17.517Z,11.25
2023-05-20T16:37:47.175Z,14.18
2023-05-20T16:40:15.655Z,13.70
2023-05-20T16:42:44.890Z,15.50
2023-05-20T16:45:14.878Z,16.67
2023-05-20T16:47:46.829Z,21.02
2023-05-20T16:50:16.176Z,15.15
2023-05-20T16:52:44.830Z,11.85
2023-05-20T16:55:13.635Z,10.50
2023-05-20T16:57:42.751Z,12.57
2023-05-20T17:00:13.453Z,13.23
2023-05-20T17:05:12.074Z,9.32
2023-05-20T17:07:41.057Z,13.25
2023-05-20T17:10:15.991Z,11.35
2023-05-20T17:12:55.143Z,10.57
2023-05-20T17:15:29.783Z,9.32
2023-05-20T17:18:03.676Z,10.15
2023-05-20T17:20:33.524Z,10.23
2023-05-20T17:23:03.692Z,13.40
2023-05-20T17:25:33.791Z,11.05
2023-05-20T17:28:02.719Z,11.23
2023-05-20T17:30:34.433Z,13.15
2023-05-20T17:33:04.492Z,16.33
2023-05-20T17:35:34.004Z,14.45
2023-05-20T17:38:02.338Z,10.85
2023-05-20T17:40:30.966Z,10.35
2023-05-20T17:42:59.693Z,12.30
2023-05-20T17:45:28.058Z,12.68
2023-05-20T17:47:57.559Z,12.07
2023-05-20T17:50:28.512Z,11.15
2023-05-20T17:52:59.036Z,13.10
2023-05-20T17:55:30.428Z,12.48
2023-05-20T17:58:02.020Z,16.60
2023-05-20T18:00:30.604Z,13.60
2023-05-20T18:02:59.322Z,11.63
2023-05-20T18:05:29.554Z,12.98
2023-05-20T18:07:58.003Z,12.10
2023-05-20T18:10:26.421Z,10.95
2023-05-20T18:12:54.844Z,11.73
2023-05-20T18:15:23.703Z,11.65
2023-05-20T18:17:52.041Z,11.02
2023-05-20T18:20:21.099Z,11.52
2023-05-20T18:22:53.633Z,12.77
2023-05-20T18:25:22.435Z,11.85
2023-05-20T18:27:50.923Z,12.38
2023-05-20T18:30:19.931Z,15.18
2023-05-20T18:32:48.252Z,20.95
2023-05-20T18:35:17.909Z,18.42
2023-05-20T18:37:46.712Z,18.20
2023-05-20T18:40:16.701Z,12.93
2023-05-20T18:42:45.903Z,11.27
2023-05-20T18:45:18.541Z,13.02
2023-05-20T18:47:47.005Z,12.35
2023-05-20T18:50:15.418Z,13.43
2023-05-20T18:52:43.986Z,15.05
2023-05-20T18:55:13.201Z,14.10
2023-05-20T18:57:43.944Z,10.80
2023-05-20T19:00:13.968Z,12.57
2023-05-20T19:02:42.777Z,25.67
2023-05-20T19:05:12.637Z,17.67
2023-05-20T19:07:41.778Z,13.75
2023-05-20T19:10:10.813Z,14.82
2023-05-20T19:15:54.560Z,31.13
2023-05-20T19:18:23.266Z,16.30
2023-05-20T19:20:52.358Z,12.73
2023-05-20T19:23:21.084Z,13.27
2023-05-20T19:25:51.066Z,14.55
2023-05-20T19:28:20.858Z,13.82
2023-05-20T19:30:52.412Z,16.95
2023-05-20T19:33:22.311Z,14.38
2023-05-20T19:35:51.061Z,14.30
2023-05-20T19:38:19.486Z,14.73
2023-05-20T19:40:48.264Z,45.13
2023-05-20T19:43:16.520Z,19.17
2023-05-20T19:45:47.435Z,15.20
2023-05-20T19:50:44.341Z,14.07
2023-05-20T19:53:13.344Z,13.65
2023-05-20T19:55:41.917Z,16.33
2023-05-20T19:58:10.668Z,15.73
2023-05-20T20:00:39.344Z,30.65
2023-05-20T20:03:09.027Z,22.17
2023-05-20T20:05:37.539Z,18.27
2023-05-20T20:08:06.817Z,21.10
2023-05-20T20:10:37.403Z,16.83
2023-05-20T20:13:07.226Z,15.05
2023-05-20T20:15:36.082Z,15.80
2023-05-20T20:18:05.283Z,13.50
2023-05-20T20:20:39.679Z,16.13
2023-05-20T20:23:09.174Z,15.20
2023-05-20T20:25:41.890Z,16.90
2023-05-20T20:28:11.352Z,15.68
2023-05-20T20:30:39.728Z,19.00
2023-05-20T20:33:09.584Z,17.80
2023-05-20T20:35:39.293Z,16.77
2023-05-20T20:38:09.830Z,17.67
2023-05-20T20:40:41.561Z,16.95
2023-05-20T20:43:20.440Z,16.67
2023-05-20T20:45:53.009Z,14.77
2023-05-20T20:48:27.272Z,15.93
2023-05-20T20:50:57.400Z,14.40
2023-05-20T20:53:30.227Z,13.50
2023-05-20T20:55:58.691Z,14.68
2023-05-20T20:58:27.869Z,16.65
2023-05-20T21:00:56.389Z,14.63
2023-05-20T21:03:26.423Z,15.45
2023-05-20T21:05:54.892Z,14.75
2023-05-20T21:08:27.654Z,19.08
2023-05-20T21:10:59.581Z,18.25
2023-05-20T21:13:28.810Z,16.00
2023-05-20T21:15:57.543Z,15.15
2023-05-20T21:18:26.253Z,15.40
2023-05-20T21:20:55.892Z,13.88
2023-05-20T21:23:25.922Z,14.57
2023-05-20T21:25:54.191Z,14.15
2023-05-20T21:28:22.437Z,14.38
2023-05-20T21:30:51.142Z,17.13
2023-05-20T21:33:19.467Z,18.05
2023-05-20T21:35:47.973Z,18.27
2023-05-20T21:38:16.305Z,12.32
2023-05-20T21:40:46.446Z,13.40
2023-05-20T21:43:14.864Z,13.30
2023-05-20T21:45:43.153Z,15.13
2023-05-20T21:48:11.504Z,15.90
2023-05-20T21:50:40.413Z,18.23
2023-05-20T21:53:08.690Z,16.10
2023-05-20T21:55:37.401Z,16.05
2023-05-20T21:58:07.354Z,13.07
2023-05-20T22:00:36.593Z,13.05
2023-05-20T22:03:05.170Z,15.32
2023-05-20T22:05:34.704Z,14.38
2023-05-20T22:08:03.561Z,11.63
2023-05-20T22:10:34.258Z,14.65
2023-05-20T22:13:03.310Z,13.15
2023-05-20T22:15:33.362Z,16.90
2023-05-20T22:18:04.742Z,13.77
2023-05-20T22:20:34.630Z,11.05
2023-05-20T22:23:04.873Z,14.63
2023-05-20T22:25:33.410Z,12.30
2023-05-20T22:28:01.797Z,13.98
2023-05-20T22:30:30.524Z,13.60
2023-05-20T22:33:00.373Z,14.50
2023-05-20T22:35:28.965Z,12.90
2023-05-20T22:37:57.340Z,13.65
2023-05-20T22:40:25.598Z,13.82
2023-05-20T22:42:54.428Z,11.63
2023-05-20T22:45:22.803Z,14.27
2023-05-20T22:47:51.150Z,11.93
2023-05-20T22:50:20.964Z,13.05
2023-05-20T22:52:49.428Z,14.75
2023-05-20T22:55:18.675Z,13.82
2023-05-20T23:00:18.745Z,11.82
2023-05-20T23:02:50.012Z,19.17
2023-05-20T23:05:21.228Z,15.23
2023-05-20T23:07:52.543Z,15.20
2023-05-20T23:10:21.017Z,13.63
2023-05-20T23:12:49.258Z,25.02
2023-05-20T23:15:18.852Z,12.38
2023-05-20T23:17:49.430Z,11.37
2023-05-20T23:20:22.326Z,12.23
2023-05-20T23:22:51.079Z,13.48
2023-05-20T23:25:19.443Z,12.05
2023-05-20T23:27:49.069Z,11.97
2023-05-20T23:30:18.350Z,12.95
2023-05-20T23:32:46.739Z,13.75
2023-05-20T23:35:15.207Z,12.43
2023-05-20T23:37:46.376Z,12.27
2023-05-20T23:40:15.174Z,12.57
2023-05-20T23:42:44.043Z,12.05
2023-05-20T23:45:13.173Z,11.52
2023-05-20T23:47:42.350Z,11.73
2023-05-20T23:50:13.209Z,11.77
2023-05-20T23:52:43.487Z,12.18
2023-05-20T23:55:14.257Z,12.85
2023-05-20T23:57:44.138Z,13.68
